Time;durP1;ratioP1;P1;durP2;ratioP2;P2;SDS_P1;SDS_P2;PMS_P1;PMS_P2;Temp;Humidity;BMP_temperature;BMP_pressure;BME280_temperature;BME280_humidity;BME280_pressure;Samples;Min_cycle;Max_cycle;Signal;HPM_P1;HPM_P2
2023/07/30 00:00:24;;;;;;;23.45;7.07;;;;;;;;;;4993547;28;20492;-83
2023/07/30 00:02:50;;;;;;;22.35;7.55;;;;;;;;;;4993351;28;20454;-84
2023/07/30 00:05:16;;;;;;;34.72;8.40;;;17.00;58.30;;;;;;4993303;28;20046;-84
2023/07/30 00:07:42;;;;;;;23.85;6.53;;;;;;;;;;4944779;28;20550;-84
2023/07/30 00:10:08;;;;;;;23.30;6.50;;;;;;;;;;4993117;28;20513;-84
2023/07/30 00:12:34;;;;;;;23.55;7.43;;;;;;;;;;4961100;28;20141;-84
2023/07/30 00:15:00;;;;;;;34.55;6.97;;;;;;;;;;4976692;28;20047;-84
2023/07/30 00:17:26;;;;;;;19.48;7.00;;;;;;;;;;4976703;28;20046;-84
2023/07/30 00:19:52;;;;;;;20.65;7.38;;;;;;;;;;4960718;28;20140;-85
2023/07/30 00:22:18;;;;;;;17.20;6.47;;;;;;;;;;4960701;28;20043;-84
2023/07/30 00:24:44;;;;;;;20.08;7.03;;;;;;;;;;4976866;28;20389;-85
2023/07/30 00:27:10;;;;;;;22.20;7.03;;;;;;;;;;4960073;28;20487;-84
2023/07/30 00:29:36;;;;;;;31.80;8.43;;;;;;;;;;4976758;28;20129;-85
2023/07/30 00:32:02;;;;;;;25.83;8.65;;;16.70;60.10;;;;;;4977516;28;20054;-85
2023/07/30 00:34:28;;;;;;;21.15;6.68;;;;;;;;;;4995861;28;20054;-84
2023/07/30 00:36:54;;;;;;;24.77;6.93;;;;;;;;;;4980028;28;20064;-84
2023/07/30 00:39:20;;;;;;;18.25;6.93;;;;;;;;;;4979885;28;20410;-84
2023/07/30 00:41:47;;;;;;;21.80;8.30;;;;;;;;;;4979842;28;20044;-86
2023/07/30 00:44:13;;;;;;;23.27;6.63;;;;;;;;;;4979742;28;20053;-85
2023/07/30 00:46:39;;;;;;;18.92;7.85;;;;;;;;;;4963509;28;20494;-86
2023/07/30 00:49:05;;;;;;;18.70;6.15;;;;;;;;;;4979490;28;20042;-86
2023/07/30 00:51:33;;;;;;;30.02;8.65;;;16.50;58.70;;;;;;4979483;28;20041;-86
2023/07/30 00:54:00;;;;;;;22.98;8.77;;;;;;;;;;4979092;28;20077;-86
2023/07/30 00:56:26;;;;;;;16.52;6.75;;;;;;;;;;4979170;28;20049;-86
2023/07/30 00:58:53;;;;;;;31.42;6.85;;;;;;;;;;4979489;28;20045;-87
2023/07/30 01:01:19;;;;;;;23.60;7.07;;;;;;;;;;4979729;28;20045;-87
2023/07/30 01:03:45;;;;;;;24.73;7.32;;;;;;;;;;4963037;28;20049;-86
2023/07/30 01:06:11;;;;;;;22.83;7.35;;;;;;;;;;4979104;28;20078;-87
2023/07/30 01:08:38;;;;;;;23.42;7.72;;;;;;;;;;4963210;28;20049;-85
2023/07/30 01:11:05;;;;;;;27.10;7.80;;;;;;;;;;4979349;28;20496;-87
2023/07/30 01:13:32;;;;;;;14.15;6.70;;;;;;;;;;4979081;28;20052;-86
2023/07/30 01:15:58;;;;;;;16.48;6.30;;;;;;;;;;4995206;28;20503;-86
2023/07/30 01:18:24;;;;;;;18.17;6.80;;;;;;;;;;4979344;28;20041;-86
2023/07/30 01:20:54;;;;;;;21.08;7.38;;;;;;;;;;4963078;28;20133;-87
2023/07/30 01:23:20;;;;;;;19.17;6.82;;;;;;;;;;4979101;28;20495;-86
2023/07/30 01:25:47;;;;;;;29.63;7.45;;;;;;;;;;4962660;28;20034;-87
2023/07/30 01:28:21;;;;;;;25.08;7.85;;;16.40;61.50;;;;;;4995105;28;20050;-86
2023/07/30 01:30:48;;;;;;;18.73;7.07;;;;;;;;;;4978874;28;20064;-86
2023/07/30 01:33:14;;;;;;;19.05;6.75;;;;;;;;;;4962742;28;20045;-87
2023/07/30 01:35:42;;;;;;;18.02;6.45;;;16.50;61.50;;;;;;4962740;28;20088;-87
2023/07/30 01:38:08;;;;;;;22.13;8.10;;;;;;;;;;4978847;28;20053;-87
2023/07/30 01:40:35;;;;;;;20.35;7.75;;;;;;;;;;4978200;28;20088;-88
2023/07/30 01:43:01;;;;;;;21.52;6.22;;;;;;;;;;4994912;28;20053;-87
2023/07/30 01:45:27;;;;;;;24.10;7.50;;;;;;;;;;4962741;28;20045;-87
2023/07/30 01:47:53;;;;;;;17.42;6.50;;;;;;;;;;4962709;28;20042;-87
2023/07/30 01:50:19;;;;;;;23.73;7.32;;;;;;;;;;4994622;28;20073;-87
2023/07/30 01:52:45;;;;;;;21.38;6.75;;;;;;;;;;4978745;28;20042;-88
2023/07/30 01:55:11;;;;;;;21.98;7.28;;;;;;;;;;4962715;28;20038;-87
2023/07/30 01:57:37;;;;;;;20.25;7.82;;;;;;;;;;4994582;28;20050;-87
2023/07/30 02:00:04;;;;;;;29.00;6.65;;;;;;;;;;4978382;28;20085;-86
2023/07/30 02:02:30;;;;;;;21.67;6.68;;;;;;;;;;4978083;28;20062;-88
2023/07/30 02:04:56;;;;;;;21.83;7.00;;;;;;;;;;4963174;28;20133;-91
2023/07/30 02:07:22;;;;;;;27.25;6.57;;;;;;;;;;4962675;28;20045;-91
2023/07/30 02:09:48;;;;;;;18.15;6.78;;;;;;;;;;4978854;28;20085;-88
2023/07/30 02:12:14;;;;;;;20.80;6.35;;;;;;;;;;4995363;28;20049;-88
2023/07/30 02:14:40;;;;;;;20.27;7.20;;;;;;;;;;4995018;28;20046;-88
2023/07/30 02:17:06;;;;;;;22.52;7.07;;;;;;;;;;4978657;28;20042;-89
2023/07/30 02:19:32;;;;;;;17.10;5.90;;;;;;;;;;4978573;28;20042;-88
2023/07/30 02:21:58;;;;;;;15.40;7.18;;;;;;;;;;4963032;28;20040;-92
2023/07/30 02:24:24;;;;;;;17.42;5.97;;;;;;;;;;4994876;28;20057;-89
2023/07/30 02:26:50;;;;;;;16.75;6.13;;;;;;;;;;4963016;28;20134;-87
2023/07/30 02:29:16;;;;;;;20.42;6.88;;;;;;;;;;4994812;28;20042;-91
2023/07/30 02:31:42;;;;;;;17.75;6.72;;;;;;;;;;4978019;28;20542;-87
2023/07/30 02:34:09;;;;;;;20.40;6.75;;;;;;;;;;4978376;28;20081;-86
2023/07/30 02:36:35;;;;;;;22.67;6.82;;;;;;;;;;4962813;28;20107;-87
2023/07/30 02:39:01;;;;;;;21.63;6.63;;;;;;;;;;4994879;28;20038;-86
2023/07/30 02:41:27;;;;;;;20.67;6.97;;;;;;;;;;4962376;28;20096;-93
2023/07/30 02:43:53;;;;;;;20.10;6.45;;;;;;;;;;4962261;28;20041;-86
2023/07/30 02:46:21;;;;;;;18.85;6.70;;;;;;;;;;4977932;28;20046;-85
2023/07/30 02:48:47;;;;;;;27.35;7.78;;;;;;;;;;4996539;28;20042;-87
2023/07/30 02:51:13;;;;;;;16.42;6.38;;;;;;;;;;4982929;28;20056;-87
2023/07/30 02:53:40;;;;;;;23.92;8.32;;;;;;;;;;4985297;28;20053;-85
2023/07/30 02:56:06;;;;;;;22.20;6.88;;;;;;;;;;4967585;28;20414;-86
2023/07/30 02:58:32;;;;;;;22.65;6.38;;;;;;;;;;4983307;28;20042;-89
2023/07/30 03:01:06;;;;;;;16.38;5.72;;;16.20;64.10;;;;;;4966519;28;20046;-88
2023/07/30 03:03:32;;;;;;;17.20;6.32;;;;;;;;;;4981982;28;20042;-87
2023/07/30 03:05:58;;;;;;;22.10;6.25;;;;;;;;;;4981739;28;20041;-88
2023/07/30 03:08:24;;;;;;;20.98;6.53;;;;;;;;;;4981539;28;20081;-88
2023/07/30 03:10:50;;;;;;;17.98;6.70;;;;;;;;;;4965561;28;20499;-88
2023/07/30 03:13:16;;;;;;;17.42;6.43;;;;;;;;;;4965821;28;20042;-88
2023/07/30 03:15:42;;;;;;;16.90;6.78;;;;;;;;;;4981494;28;20132;-86
2023/07/30 03:18:08;;;;;;;25.70;6.50;;;;;;;;;;4997960;28;20246;-89
2023/07/30 03:20:34;;;;;;;26.33;6.30;;;;;;;;;;4965861;28;20470;-88
2023/07/30 03:23:00;;;;;;;23.05;7.72;;;;;;;;;;4981488;28;20042;-87
2023/07/30 03:25:27;;;;;;;23.13;6.85;;;;;;;;;;4981301;28;20038;-88
2023/07/30 03:27:53;;;;;;;17.95;6.47;;;;;;;;;;4997351;28;20053;-89
2023/07/30 03:30:19;;;;;;;22.10;6.47;;;;;;;;;;4964839;28;20046;-88
2023/07/30 03:32:45;;;;;;;20.73;6.07;;;;;;;;;;4980849;28;20137;-88
2023/07/30 03:35:11;;;;;;;21.67;6.93;;;;;;;;;;4997316;28;20130;-88
2023/07/30 03:37:37;;;;;;;19.85;6.13;;;;;;;;;;4980987;28;20042;-88
2023/07/30 03:40:03;;;;;;;18.65;6.28;;;;;;;;;;4964219;28;20089;-87
2023/07/30 03:42:29;;;;;;;22.40;6.53;;;;;;;;;;4996997;28;20384;-89
2023/07/30 03:44:55;;;;;;;23.27;5.75;;;;;;;;;;4996750;28;20165;-87
2023/07/30 03:47:21;;;;;;;24.88;6.60;;;;;;;;;;4964889;28;20044;-86
2023/07/30 03:49:47;;;;;;;20.77;6.00;;;;;;;;;;4996650;28;20038;-88
2023/07/30 03:52:13;;;;;;;21.30;5.95;;;;;;;;;;4980460;28;20050;-86
2023/07/30 03:54:39;;;;;;;16.63;5.90;;;;;;;;;;4964256;28;20037;-88
2023/07/30 03:57:06;;;;;;;17.10;5.85;;;;;;;;;;4964420;28;20140;-88
2023/07/30 03:59:32;;;;;;;17.10;6.47;;;;;;;;;;4980476;28;20053;-89
2023/07/30 04:01:58;;;;;;;26.95;6.15;;;;;;;;;;4963452;28;20513;-89
2023/07/30 04:04:24;;;;;;;21.10;5.82;;;15.90;65.60;;;;;;4980044;28;20046;-88
2023/07/30 04:06:50;;;;;;;19.60;6.63;;;;;;;;;;4980013;28;20132;-87
2023/07/30 04:09:16;;;;;;;19.73;6.25;;;;;;;;;;4964015;28;20525;-89
2023/07/30 04:11:42;;;;;;;19.48;6.07;;;;;;;;;;4996152;28;20050;-89
2023/07/30 04:14:09;;;;;;;17.15;6.20;;;;;;;;;;4979999;28;20088;-87
2023/07/30 04:16:35;;;;;;;22.98;5.47;;;;;;;;;;4980165;28;20046;-88
2023/07/30 04:19:01;;;;;;;29.58;6.30;;;;;;;;;;4979863;28;20570;-87
2023/07/30 04:21:27;;;;;;;17.80;6.75;;;;;;;;;;4963917;28;20091;-89
2023/07/30 04:23:53;;;;;;;15.05;5.88;;;;;;;;;;4980464;28;20384;-86
2023/07/30 04:26:19;;;;;;;24.38;5.78;;;;;;;;;;4980109;28;20179;-89
2023/07/30 04:28:45;;;;;;;14.32;5.47;;;;;;;;;;4963935;28;20091;-88
2023/07/30 04:31:11;;;;;;;13.57;5.43;;;;;;;;;;4979759;28;20514;-89
2023/07/30 04:33:38;;;;;;;27.73;5.47;;;;;;;;;;4979696;28;20081;-88
2023/07/30 04:36:04;;;;;;;16.17;5.80;;;;;;;;;;4963823;28;20056;-88
2023/07/30 04:38:30;;;;;;;21.95;6.03;;;;;;;;;;4963783;28;20049;-87
2023/07/30 04:40:58;;;;;;;24.77;5.88;;;16.00;68.00;;;;;;4996114;28;20053;-88
2023/07/30 04:43:24;;;;;;;25.90;6.15;;;;;;;;;;4979573;28;20104;-87
2023/07/30 04:45:50;;;;;;;21.08;5.57;;;;;;;;;;4963860;28;20406;-88
2023/07/30 04:48:16;;;;;;;21.50;5.85;;;;;;;;;;4963704;28;20402;-89
2023/07/30 04:50:42;;;;;;;21.52;5.07;;;;;;;;;;4979487;28;20038;-87
2023/07/30 04:53:09;;;;;;;14.20;4.60;;;;;;;;;;4963582;28;20073;-88
2023/07/30 04:55:35;;;;;;;25.27;5.40;;;;;;;;;;4978991;28;20041;-87
2023/07/30 04:58:02;;;;;;;15.00;4.65;;;;;;;;;;4979176;28;20048;-87
2023/07/30 05:00:28;;;;;;;18.90;4.78;;;;;;;;;;4979559;28;20057;-87
2023/07/30 05:02:54;;;;;;;8.55;3.90;;;;;;;;;;4962838;28;20120;-87
2023/07/30 05:05:20;;;;;;;13.57;4.63;;;;;;;;;;4979408;28;20414;-88
2023/07/30 05:07:46;;;;;;;13.38;4.35;;;;;;;;;;4963144;28;20046;-88
2023/07/30 05:10:12;;;;;;;17.13;4.07;;;;;;;;;;4963002;28;20046;-87
2023/07/30 05:12:38;;;;;;;11.98;4.18;;;;;;;;;;4963539;28;20038;-88
2023/07/30 05:15:05;;;;;;;12.68;3.80;;;;;;;;;;4978923;28;20045;-88
2023/07/30 05:17:31;;;;;;;14.93;3.67;;;;;;;;;;4995256;28;20046;-86
2023/07/30 05:19:57;;;;;;;10.25;3.38;;;;;;;;;;4979119;28;20104;-85
2023/07/30 05:22:25;;;;;;;12.88;3.10;;;;;;;;;;4979452;28;20042;-87
2023/07/30 05:24:51;;;;;;;13.32;3.60;;;;;;;;;;4979117;28;20096;-86
2023/07/30 05:27:17;;;;;;;17.85;4.38;;;;;;;;;;4995148;28;20048;-88
2023/07/30 05:29:43;;;;;;;10.07;3.13;;;;;;;;;;4979166;28;20045;-86
2023/07/30 05:32:09;;;;;;;9.32;2.28;;;;;;;;;;4994425;28;20069;-87
2023/07/30 05:34:35;;;;;;;14.70;3.50;;;;;;;;;;4978515;28;20137;-88
2023/07/30 05:37:02;;;;;;;7.32;2.75;;;;;;;;;;4994701;28;20041;-88
2023/07/30 05:39:28;;;;;;;7.32;3.10;;;;;;;;;;4978200;28;20479;-86
2023/07/30 05:41:54;;;;;;;9.48;2.65;;;;;;;;;;4978999;28;20088;-87
2023/07/30 05:44:20;;;;;;;10.43;2.60;;;;;;;;;;4994740;28;20081;-87
2023/07/30 05:46:46;;;;;;;8.00;3.20;;;;;;;;;;4978377;28;20506;-89
2023/07/30 05:49:12;;;;;;;12.88;2.80;;;;;;;;;;4994833;28;20054;-89
2023/07/30 05:51:38;;;;;;;17.77;3.08;;;;;;;;;;4994840;28;20487;-88
2023/07/30 05:54:05;;;;;;;7.38;2.42;;;;;;;;;;4978711;28;20450;-88
2023/07/30 05:56:31;;;;;;;8.68;2.58;;;;;;;;;;4994876;28;20048;-89
2023/07/30 05:58:57;;;;;;;7.72;2.15;;;;;;;;;;4994743;28;20103;-88
2023/07/30 06:01:23;;;;;;;13.70;3.10;;;;;;;;;;4978453;28;20042;-85
2023/07/30 06:03:49;;;;;;;8.27;2.33;;;;;;;;;;4962498;28;20041;-88
2023/07/30 06:06:15;;;;;;;8.15;2.10;;;;;;;;;;4978258;28;20054;-88
2023/07/30 06:08:41;;;;;;;8.48;2.15;;;;;;;;;;4962113;28;20073;-88
2023/07/30 06:11:08;;;;;;;6.35;2.40;;;;;;;;;;4962629;28;20306;-89
2023/07/30 06:13:34;;;;;;;7.93;2.50;;;;;;;;;;4962510;28;20048;-86
2023/07/30 06:16:00;;;;;;;12.55;2.55;;;;;;;;;;4978596;28;20054;-88
2023/07/30 06:18:26;;;;;;;9.80;2.28;;;17.20;52.20;;;;;;4978620;28;20045;-88
2023/07/30 06:20:52;;;;;;;9.88;3.13;;;;;;;;;;4978339;28;20558;-87
2023/07/30 06:23:18;;;;;;;8.52;2.30;;;;;;;;;;4978108;28;20561;-87
2023/07/30 06:25:44;;;;;;;6.97;2.97;;;;;;;;;;4995288;28;20050;-87
2023/07/30 06:28:10;;;;;;;10.43;2.42;;;;;;;;;;4982033;28;20498;-88
2023/07/30 06:30:38;;;;;;;10.73;2.53;;;;;;;;;;4998200;28;20140;-88
2023/07/30 06:33:05;;;;;;;6.70;2.83;;;;;;;;;;4998026;28;20042;-88
2023/07/30 06:35:31;;;;;;;5.32;2.35;;;;;;;;;;4998149;28;20046;-88
2023/07/30 06:37:57;;;;;;;7.00;2.45;;;;;;;;;;4998189;28;20081;-88
2023/07/30 06:40:23;;;;;;;9.05;3.22;;;;;;;;;;4981877;28;20045;-88
2023/07/30 06:42:49;;;;;;;7.38;1.98;;;;;;;;;;4981981;28;20050;-88
2023/07/30 06:45:15;;;;;;;5.90;2.65;;;;;;;;;;4981976;28;20099;-88
2023/07/30 06:47:41;;;;;;;5.68;2.20;;;;;;;;;;4981809;28;20060;-88
2023/07/30 06:50:10;;;;;;;12.23;2.55;;;;;;;;;;4965866;28;20053;-86
2023/07/30 06:52:37;;;;;;;6.20;2.63;;;;;;;;;;4982213;28;20068;-89
2023/07/30 06:55:03;;;;;;;9.25;3.15;;;;;;;;;;4998115;28;20499;-90
2023/07/30 06:57:32;;;;;;;7.47;2.58;;;;;;;;;;4981733;28;20049;-89
2023/07/30 07:00:00;;;;;;;7.45;2.58;;;;;;;;;;4965558;28;20052;-89
2023/07/30 07:02:26;;;;;;;11.95;3.20;;;;;;;;;;4965565;28;20129;-88
2023/07/30 07:04:52;;;;;;;8.82;3.08;;;;;;;;;;4981617;28;20402;-88
2023/07/30 07:07:18;;;;;;;11.27;2.88;;;;;;;;;;4965308;28;20053;-86
2023/07/30 07:09:44;;;;;;;10.48;2.40;;;;;;;;;;4997768;28;20038;-86
2023/07/30 07:12:10;;;;;;;7.55;2.45;;;;;;;;;;5015052;28;20104;-89
2023/07/30 07:14:36;;;;;;;5.32;2.63;;;;;;;;;;4997544;28;20046;-85
2023/07/30 07:17:02;;;;;;;9.80;2.40;;;;;;;;;;4981457;28;20052;-85
2023/07/30 07:19:28;;;;;;;10.38;3.85;;;;;;;;;;5014863;28;20454;-87
2023/07/30 07:21:54;;;;;;;8.13;2.67;;;;;;;;;;4997496;28;20042;-88
2023/07/30 07:24:21;;;;;;;7.43;2.80;;;;;;;;;;4997376;28;20050;-87
2023/07/30 07:26:47;;;;;;;11.85;2.55;;;;;;;;;;4981100;28;20046;-86
2023/07/30 07:29:13;;;;;;;12.85;2.92;;;;;;;;;;4981501;28;20046;-85
2023/07/30 07:31:39;;;;;;;7.13;3.70;;;;;;;;;;4997786;28;20061;-85
2023/07/30 07:34:05;;;;;;;9.18;2.72;;;;;;;;;;4998016;28;20076;-87
2023/07/30 07:36:31;;;;;;;9.10;2.78;;;;;;;;;;4997493;28;20053;-85
2023/07/30 07:38:57;;;;;;;13.20;3.70;;;;;;;;;;4980834;28;20050;-87
2023/07/30 07:41:23;;;;;;;8.18;3.13;;;;;;;;;;4997313;28;20108;-86
2023/07/30 07:43:52;;;;;;;8.23;2.83;;;;;;;;;;4996955;28;20602;-87
2023/07/30 07:46:18;;;;;;;7.03;3.33;;;;;;;;;;4980706;28;20052;-84
2023/07/30 07:48:44;;;;;;;8.18;2.28;;;;;;;;;;4980486;28;20133;-85
2023/07/30 07:51:11;;;;;;;10.82;2.58;;;18.30;26.90;;;;;;4996448;28;20203;-86
2023/07/30 07:53:37;;;;;;;10.05;2.58;;;;;;;;;;4979943;28;20045;-85
2023/07/30 07:56:03;;;;;;;16.23;2.85;;;18.40;29.30;;;;;;4980326;28;20042;-88
2023/07/30 07:58:29;;;;;;;7.57;2.33;;;;;;;;;;4980821;28;20483;-86
2023/07/30 08:00:58;;;;;;;4.97;2.92;;;18.20;27.70;;;;;;4979731;28;20048;-87
2023/07/30 08:03:26;;;;;;;16.65;2.63;;;;;;;;;;4979875;28;20110;-87
2023/07/30 08:05:52;;;;;;;11.40;2.20;;;;;;;;;;4996022;28;20500;-87
2023/07/30 08:08:19;;;;;;;6.38;2.53;;;;;;;;;;4979918;28;20111;-85
2023/07/30 08:10:47;;;;;;;18.80;3.72;;;;;;;;;;4980038;28;20079;-86
2023/07/30 08:13:13;;;;;;;12.38;2.72;;;;;;;;;;4964238;28;20491;-87
2023/07/30 08:15:39;;;;;;;11.43;2.55;;;;;;;;;;4980255;28;20099;-86
2023/07/30 08:18:05;;;;;;;9.82;2.70;;;;;;;;;;4964214;28;20108;-86
2023/07/30 08:20:31;;;;;;;5.55;2.33;;;;;;;;;;4979987;28;20042;-85
2023/07/30 08:22:57;;;;;;;8.80;2.35;;;;;;;;;;4979815;28;20582;-86
2023/07/30 08:25:24;;;;;;;12.07;3.20;;;;;;;;;;4979557;28;20519;-86
2023/07/30 08:27:50;;;;;;;9.98;2.85;;;;;;;;;;4979974;28;20402;-88
2023/07/30 08:30:16;;;;;;;13.55;3.38;;;18.20;28.10;;;;;;4979361;28;20057;-87
2023/07/30 08:32:43;;;;;;;5.53;2.47;;;;;;;;;;4947437;28;20403;-87
2023/07/30 08:35:09;;;;;;;10.60;2.28;;;18.30;27.50;;;;;;4979577;28;20395;-87
2023/07/30 08:37:35;;;;;;;6.18;3.47;;;;;;;;;;4979794;28;20103;-85
2023/07/30 08:40:02;;;;;;;6.75;2.17;;;;;;;;;;4979709;28;20447;-85
2023/07/30 08:42:28;;;;;;;11.70;3.00;;;;;;;;;;4995415;28;20073;-85
2023/07/30 08:44:54;;;;;;;9.35;3.45;;;;;;;;;;4979530;28;20088;-87
2023/07/30 08:47:20;;;;;;;10.48;2.08;;;;;;;;;;4963413;28;20104;-87
2023/07/30 08:49:47;;;;;;;6.60;2.08;;;;;;;;;;4979367;28;20046;-85
2023/07/30 08:52:13;;;;;;;6.80;2.45;;;18.50;24.00;;;;;;4979412;28;20089;-85
2023/07/30 08:54:39;;;;;;;9.15;2.80;;;;;;;;;;4995558;28;20410;-85
2023/07/30 08:57:06;;;;;;;10.57;2.22;;;;;;;;;;4979537;28;20038;-86
2023/07/30 08:59:37;;;;;;;11.55;2.85;;;18.60;24.50;;;;;;4978991;28;20129;-85
2023/07/30 09:02:06;;;;;;;7.05;2.28;;;18.50;23.50;;;;;;4995388;28;20070;-85
2023/07/30 09:04:36;;;;;;;8.00;1.80;;;18.50;21.20;;;;;;4995687;28;20162;-86
2023/07/30 09:07:02;;;;;;;4.85;1.70;;;;;;;;;;4979287;28;20054;-86
2023/07/30 09:09:28;;;;;;;6.70;1.77;;;;;;;;;;4979944;28;20065;-86
2023/07/30 09:11:55;;;;;;;4.35;1.85;;;18.10;22.10;;;;;;4963745;28;20052;-87
2023/07/30 09:14:21;;;;;;;3.30;1.67;;;;;;;;;;4980388;28;20041;-87
2023/07/30 09:16:48;;;;;;;7.55;2.80;;;;;;;;;;4996169;28;20408;-86
2023/07/30 09:19:17;;;;;;;4.32;1.50;;;18.20;25.20;;;;;;4980040;28;20501;-86
2023/07/30 09:21:43;;;;;;;4.35;1.65;;;;;;;;;;4979165;28;20050;-86
2023/07/30 09:24:10;;;;;;;11.02;2.88;;;;;;;;;;4979609;28;20161;-87
2023/07/30 09:26:47;;;;;;;7.63;1.92;;;;;;;;;;4963313;28;20133;-87
2023/07/30 09:29:14;;;;;;;3.53;2.22;;;;;;;;;;4979645;28;20048;-86
2023/07/30 09:31:47;;;;;;;2.58;1.48;;;;;;;;;;4992153;28;20062;-86
2023/07/30 09:34:18;;;;;;;4.00;1.70;;;;;;;;;;4992879;28;20137;-86
2023/07/30 09:36:45;;;;;;;7.15;1.50;;;18.00;26.10;;;;;;4992277;28;20177;-86
2023/07/30 09:39:37;;;;;;;10.73;3.70;;;18.00;27.00;;;;;;4944408;28;20104;-86
2023/07/30 09:42:03;;;;;;;5.90;1.75;;;;;;;;;;4989948;28;20060;-86
2023/07/30 09:44:32;;;;;;;8.32;2.17;;;;;;;;;;4960157;28;20046;-86
2023/07/30 09:46:58;;;;;;;8.77;1.88;;;;;;;;;;4992216;28;20101;-87
2023/07/30 09:49:24;;;;;;;4.35;1.92;;;;;;;;;;4958994;28;20109;-87
2023/07/30 09:51:52;;;;;;;3.40;1.40;;;18.00;27.00;;;;;;4975423;28;20121;-87
2023/07/30 09:54:18;;;;;;;7.30;1.75;;;;;;;;;;4975572;28;20049;-86
2023/07/30 09:56:44;;;;;;;6.07;1.90;;;;;;;;;;4975769;28;20038;-87
2023/07/30 09:59:10;;;;;;;6.70;2.00;;;;;;;;;;4959611;28;20089;-87
2023/07/30 10:01:46;;;;;;;5.93;2.35;;;18.40;28.80;;;;;;4957772;28;20071;-87
2023/07/30 10:04:12;;;;;;;8.05;2.30;;;;;;;;;;4992042;28;20055;-86
2023/07/30 10:06:44;;;;;;;9.40;2.00;;;18.90;29.80;;;;;;4991700;28;20133;-87
2023/07/30 10:09:18;;;;;;;8.10;2.90;;;18.80;29.50;;;;;;4991567;28;20050;-86
2023/07/30 10:11:45;;;;;;;7.55;2.63;;;;;;;;;;4975608;28;20050;-87
2023/07/30 10:14:12;;;;;;;5.57;2.58;;;18.70;28.80;;;;;;4959282;28;20562;-87
2023/07/30 10:16:39;;;;;;;17.73;3.90;;;19.00;30.80;;;;;;4976002;28;20411;-87
2023/07/30 10:19:06;;;;;;;19.48;4.57;;;;;;;;;;4991331;28;20103;-86
2023/07/30 10:21:33;;;;;;;9.13;2.35;;;;;;;;;;4975955;28;20095;-87
2023/07/30 10:24:05;;;;;;;6.00;2.22;;;19.00;28.20;;;;;;4991581;28;20050;-87
2023/07/30 10:26:36;;;;;;;8.45;2.20;;;19.20;28.60;;;;;;4974986;28;20503;-87
2023/07/30 10:29:23;;;;;;;6.68;2.38;;;19.00;26.40;;;;;;4987641;28;20046;-86
2023/07/30 10:31:57;;;;;;;6.43;1.80;;;19.50;27.40;;;;;;4978074;28;20108;-87
2023/07/30 10:34:43;;;;;;;6.28;1.90;;;19.40;27.70;;;;;;4978646;28;20050;-87
2023/07/30 10:37:10;;;;;;;4.03;1.60;;;;;;;;;;5011295;28;20549;-87
2023/07/30 10:39:36;;;;;;;7.25;2.13;;;;;;;;;;4962639;28;20046;-87
2023/07/30 10:42:02;;;;;;;8.80;1.98;;;;;;;;;;4977964;28;20046;-86
2023/07/30 10:44:32;;;;;;;8.80;2.30;;;20.00;19.30;;;;;;4962805;28;20038;-86
2023/07/30 10:46:59;;;;;;;6.30;1.80;;;20.10;17.80;;;;;;4962939;28;20049;-86
2023/07/30 10:49:26;;;;;;;8.55;2.92;;;;;;;;;;4994872;28;20139;-86
2023/07/30 10:51:53;;;;;;;11.88;3.03;;;20.00;19.50;;;;;;4978846;28;20402;-85
2023/07/30 10:54:19;;;;;;;11.15;2.45;;;;;;;;;;5011145;28;20057;-85
2023/07/30 10:56:47;;;;;;;7.00;2.25;;;;;;;;;;4994664;28;20050;-85
2023/07/30 10:59:15;;;;;;;4.50;2.00;;;20.00;17.90;;;;;;4978205;28;20049;-85
2023/07/30 11:01:43;;;;;;;6.22;2.22;;;20.10;18.50;;;;;;4994407;28;20491;-86
2023/07/30 11:04:11;;;;;;;9.90;2.38;;;20.30;19.30;;;;;;4994100;28;20042;-86
2023/07/30 11:06:39;;;;;;;5.22;1.98;;;20.30;18.30;;;;;;4961523;28;20053;-86
2023/07/30 11:09:05;;;;;;;12.43;2.72;;;;;;;;;;4946443;28;20104;-85
2023/07/30 11:11:32;;;;;;;7.22;2.10;;;;;;;;;;4994735;28;20516;-85
2023/07/30 11:14:04;;;;;;;3.30;1.73;;;20.50;15.90;;;;;;4967244;28;20042;-85
2023/07/30 11:16:31;;;;;;;12.85;2.42;;;20.60;17.60;;;;;;4981330;28;20046;-85
2023/07/30 11:18:58;;;;;;;8.45;2.38;;;;;;;;;;4949629;28;20054;-86
2023/07/30 11:21:24;;;;;;;8.25;2.50;;;;;;;;;;4997952;28;20077;-85
2023/07/30 11:23:51;;;;;;;7.28;2.00;;;20.80;15.70;;;;;;4981369;28;20124;-85
2023/07/30 11:26:19;;;;;;;10.68;2.70;;;20.40;14.20;;;;;;5015287;28;20054;-86
2023/07/30 11:28:45;;;;;;;5.13;2.05;;;;;;;;;;4997493;28;20054;-85
2023/07/30 11:31:19;;;;;;;7.82;2.15;;;20.80;17.10;;;;;;4961606;28;20054;-85
2023/07/30 11:33:46;;;;;;;;;;;20.60;15.50;;;;;;4994607;28;20053;-85
2023/07/30 11:36:18;;;;;;;13.07;2.75;;;20.50;16.70;;;;;;4995356;28;19972;-85
2023/07/30 11:38:45;;;;;;;5.70;1.88;;;20.60;14.10;;;;;;4994117;28;20054;-85
2023/07/30 11:41:12;;;;;;;7.93;2.72;;;;;;;;;;4994345;28;20121;-85
2023/07/30 11:43:40;;;;;;;9.18;2.33;;;20.60;14.10;;;;;;4962207;28;20039;-85
2023/07/30 11:46:08;;;;;;;5.18;2.00;;;20.30;15.30;;;;;;4994038;28;20046;-85
2023/07/30 11:48:35;;;;;;;7.00;1.90;;;;;;;;;;4977690;28;20046;-85
2023/07/30 11:51:01;;;;;;;6.90;2.50;;;;;;;;;;4994120;28;20046;-86
2023/07/30 11:53:47;;;;;;;15.00;3.00;;;20.30;15.80;;;;;;4993556;28;20311;-85
2023/07/30 11:56:19;;;;;;;7.55;2.08;;;20.10;12.80;;;;;;4977612;28;20043;-85
2023/07/30 11:58:47;;;;;;;7.38;2.15;;;20.10;14.10;;;;;;4993615;28;20580;-85
2023/07/30 12:01:14;;;;;;;3.08;1.58;;;19.90;13.70;;;;;;4977753;28;20100;-86
2023/07/30 12:03:41;;;;;;;7.72;1.55;;;;;;;;;;4945435;28;20049;-84
2023/07/30 12:06:07;;;;;;;9.63;2.50;;;;;;;;;;4993864;28;20050;-85
2023/07/30 12:08:35;;;;;;;4.05;1.10;;;20.10;15.20;;;;;;4993611;28;20407;-85
2023/07/30 12:11:09;;;;;;;4.40;1.80;;;19.90;13.50;;;;;;4993602;28;20109;-85
2023/07/30 12:13:42;;;;;;;;;;;19.80;16.80;;;;;;4977684;28;20384;-85
2023/07/30 12:16:08;;;;;;;6.93;2.20;;;;;;;;;;4977373;28;20094;-85
2023/07/30 12:18:35;;;;;;;9.93;4.43;;;;;;;;;;4961533;28;20038;-85
2023/07/30 12:21:07;;;;;;;6.75;2.85;;;;;;;;;;4993617;28;20042;-85
2023/07/30 12:23:34;;;;;;;4.72;1.90;;;20.40;18.00;;;;;;4960670;28;20045;-85
2023/07/30 12:26:00;;;;;;;4.60;2.38;;;;;;;;;;4977443;28;20038;-85
2023/07/30 12:28:26;;;;;;;5.70;1.90;;;;;;;;;;4993311;28;20038;-85
2023/07/30 12:30:52;;;;;;;6.47;2.00;;;;;;;;;;4960737;28;20054;-86
2023/07/30 12:33:19;;;;;;;5.20;1.67;;;;;;;;;;4976842;28;20129;-85
2023/07/30 12:35:45;;;;;;;13.48;2.25;;;20.40;16.40;;;;;;4993620;28;20050;-85
2023/07/30 12:38:11;;;;;;;4.50;2.38;;;;;;;;;;4976954;28;20042;-84
2023/07/30 12:40:37;;;;;;;7.65;2.00;;;;;;;;;;4976644;28;20096;-85
2023/07/30 12:43:03;;;;;;;10.50;2.42;;;;;;;;;;4992974;28;20096;-86
2023/07/30 12:49:10;;;;;;;3.55;1.27;;;20.80;12.90;;;;;;4992494;28;20073;-85
2023/07/30 12:51:36;;;;;;;2.75;1.20;;;;;;;;;;4960545;28;20495;-84
2023/07/30 12:54:02;;;;;;;2.20;1.58;;;;;;;;;;4991972;28;20076;-85
2023/07/30 12:56:28;;;;;;;3.58;1.38;;;;;;;;;;4992347;28;20101;-86
2023/07/30 12:58:55;;;;;;;5.85;1.33;;;;;;;;;;4976465;28;20034;-85
2023/07/30 13:01:21;;;;;;;2.22;1.23;;;;;;;;;;4992831;28;20042;-85
2023/07/30 13:03:48;;;;;;;4.03;1.52;;;;;;;;;;4976362;28;20088;-84
2023/07/30 13:06:14;;;;;;;3.60;1.45;;;;;;;;;;4992499;28;20050;-86
2023/07/30 13:08:40;;;;;;;3.50;1.45;;;21.70;9.70;;;;;;4992171;28;20046;-87
2023/07/30 13:11:06;;;;;;;4.97;1.42;;;;;;;;;;4959876;28;20053;-85
2023/07/30 13:13:32;;;;;;;3.90;1.63;;;;;;;;;;4975944;28;20558;-86
2023/07/30 13:16:01;;;;;;;4.85;2.00;;;21.50;5.50;;;;;;4976062;28;20053;-85
2023/07/30 13:18:27;;;;;;;7.13;1.30;;;;;;;;;;4976290;28;20042;-86
2023/07/30 13:20:53;;;;;;;4.78;1.65;;;;;;;;;;4976073;28;20141;-85
2023/07/30 13:23:19;;;;;;;6.05;1.63;;;;;;;;;;4958858;28;20046;-85
2023/07/30 13:25:45;;;;;;;6.93;1.70;;;;;;;;;;4976055;28;20056;-85
2023/07/30 13:28:11;;;;;;;9.40;2.20;;;;;;;;;;4991972;28;20042;-85
2023/07/30 13:30:37;;;;;;;3.55;1.75;;;;;;;;;;4977835;28;20090;-84
2023/07/30 13:33:04;;;;;;;11.27;1.70;;;;;;;;;;4978865;28;20046;-85
2023/07/30 13:35:30;;;;;;;2.88;1.70;;;;;;;;;;4979455;28;20072;-85
2023/07/30 13:37:56;;;;;;;5.88;1.65;;;;;;;;;;4995715;28;20042;-85
2023/07/30 13:40:23;;;;;;;2.65;1.52;;;;;;;;;;4963364;28;20041;-84
2023/07/30 13:42:49;;;;;;;2.97;1.40;;;;;;;;;;4979065;28;20056;-84
2023/07/30 13:45:15;;;;;;;4.00;1.92;;;;;;;;;;4978822;28;20050;-85
2023/07/30 13:47:41;;;;;;;4.07;1.23;;;;;;;;;;4995245;28;20459;-85
2023/07/30 13:50:07;;;;;;;2.40;1.40;;;21.40;7.00;;;;;;4962854;28;20124;-85
2023/07/30 13:52:33;;;;;;;6.95;1.58;;;21.30;7.90;;;;;;4962736;28;20487;-84
2023/07/30 13:54:59;;;;;;;4.78;1.60;;;21.20;6.50;;;;;;4947192;28;20038;-84
2023/07/30 13:57:26;;;;;;;2.60;1.40;;;21.20;4.60;;;;;;4978805;28;20474;-83
2023/07/30 13:59:54;;;;;;;5.72;1.40;;;21.30;7.20;;;;;;4963079;28;20046;-84
2023/07/30 14:02:21;;;;;;;3.30;1.35;;;;;;;;;;4994644;28;20129;-84
2023/07/30 14:04:47;;;;;;;4.30;1.85;;;;;;;;;;4994922;28;20089;-85
2023/07/30 14:07:13;;;;;;;3.25;1.75;;;;;;;;;;4978924;28;20095;-84
2023/07/30 14:09:40;;;;;;;6.38;2.30;;;;;;;;;;4994659;28;20096;-85
2023/07/30 14:12:06;;;;;;;6.70;2.58;;;20.90;10.30;;;;;;4994872;28;20057;-84